sensor_id;sensor_type;location;lat;lon;timestamp;P1;durP1;ratioP1;P2;durP2;ratioP2
74042;SDS011;62384;53.600;10.040;2022-10-18T00:02:19;12.65;;;6.20;;
74042;SDS011;62384;53.600;10.040;2022-10-18T00:04:44;16.73;;;6.28;;
74042;SDS011;62384;53.600;10.040;2022-10-18T00:07:10;12.35;;;5.70;;
74042;SDS011;62384;53.600;10.040;2022-10-18T00:09:35;18.05;;;6.07;;
74042;SDS011;62384;53.600;10.040;2022-10-18T00:12:00;13.38;;;5.93;;
74042;SDS011;62384;53.600;10.040;2022-10-18T00:14:32;13.13;;;5.57;;
74042;SDS011;62384;53.600;10.040;2022-10-18T00:16:57;12.20;;;5.80;;
74042;SDS011;62384;53.600;10.040;2022-10-18T00:19:22;15.60;;;5.97;;
74042;SDS011;62384;53.600;10.040;2022-10-18T00:21:51;10.90;;;6.05;;
74042;SDS011;62384;53.600;10.040;2022-10-18T00:24:16;16.70;;;6.18;;
74042;SDS011;62384;53.600;10.040;2022-10-18T00:26:41;13.30;;;5.65;;
74042;SDS011;62384;53.600;10.040;2022-10-18T00:29:09;13.05;;;6.20;;
74042;SDS011;62384;53.600;10.040;2022-10-18T00:31:39;17.15;;;6.97;;
74042;SDS011;62384;53.600;10.040;2022-10-18T00:34:11;13.38;;;5.63;;
74042;SDS011;62384;53.600;10.040;2022-10-18T00:36:43;17.05;;;6.78;;
74042;SDS011;62384;53.600;10.040;2022-10-18T00:39:13;15.07;;;6.07;;
74042;SDS011;62384;53.600;10.040;2022-10-18T00:41:40;16.75;;;6.38;;
74042;SDS011;62384;53.600;10.040;2022-10-18T00:46:38;13.60;;;5.18;;
74042;SDS011;62384;53.600;10.040;2022-10-18T00:49:12;13.75;;;7.55;;
74042;SDS011;62384;53.600;10.040;2022-10-18T00:54:28;17.05;;;6.80;;
74042;SDS011;62384;53.600;10.040;2022-10-18T00:56:56;16.58;;;6.95;;
74042;SDS011;62384;53.600;10.040;2022-10-18T00:59:21;16.27;;;7.47;;
74042;SDS011;62384;53.600;10.040;2022-10-18T01:01:50;20.83;;;6.88;;
74042;SDS011;62384;53.600;10.040;2022-10-18T01:04:16;15.23;;;6.47;;
74042;SDS011;62384;53.600;10.040;2022-10-18T01:12:58;19.52;;;7.15;;
74042;SDS011;62384;53.600;10.040;2022-10-18T01:15:52;18.98;;;7.10;;
74042;SDS011;62384;53.600;10.040;2022-10-18T01:21:08;16.42;;;7.03;;
74042;SDS011;62384;53.600;10.040;2022-10-18T01:26:42;15.88;;;7.85;;
74042;SDS011;62384;53.600;10.040;2022-10-18T01:32:15;17.33;;;7.88;;
74042;SDS011;62384;53.600;10.040;2022-10-18T01:34:48;18.27;;;7.32;;
74042;SDS011;62384;53.600;10.040;2022-10-18T01:37:16;18.20;;;7.60;;
74042;SDS011;62384;53.600;10.040;2022-10-18T01:39:45;18.13;;;7.53;;
74042;SDS011;62384;53.600;10.040;2022-10-18T01:42:16;17.73;;;7.47;;
74042;SDS011;62384;53.600;10.040;2022-10-18T01:44:44;25.40;;;7.68;;
74042;SDS011;62384;53.600;10.040;2022-10-18T01:47:12;15.52;;;6.55;;
74042;SDS011;62384;53.600;10.040;2022-10-18T01:49:38;20.15;;;7.90;;
74042;SDS011;62384;53.600;10.040;2022-10-18T01:52:04;21.25;;;7.85;;
74042;SDS011;62384;53.600;10.040;2022-10-18T01:54:31;14.52;;;6.97;;
74042;SDS011;62384;53.600;10.040;2022-10-18T01:57:01;22.50;;;7.97;;
74042;SDS011;62384;53.600;10.040;2022-10-18T02:08:03;18.95;;;7.75;;
74042;SDS011;62384;53.600;10.040;2022-10-18T02:10:52;20.00;;;8.25;;
74042;SDS011;62384;53.600;10.040;2022-10-18T02:13:32;19.73;;;7.93;;
74042;SDS011;62384;53.600;10.040;2022-10-18T02:16:27;21.80;;;8.25;;
74042;SDS011;62384;53.600;10.040;2022-10-18T02:22:07;23.25;;;7.60;;
74042;SDS011;62384;53.600;10.040;2022-10-18T02:24:37;26.40;;;9.00;;
74042;SDS011;62384;53.600;10.040;2022-10-18T02:27:11;22.45;;;8.65;;
74042;SDS011;62384;53.600;10.040;2022-10-18T02:29:36;19.70;;;7.88;;
74042;SDS011;62384;53.600;10.040;2022-10-18T02:32:05;19.77;;;8.13;;
74042;SDS011;62384;53.600;10.040;2022-10-18T02:34:41;19.83;;;8.68;;
74042;SDS011;62384;53.600;10.040;2022-10-18T02:37:10;20.98;;;8.35;;
74042;SDS011;62384;53.600;10.040;2022-10-18T02:39:39;21.83;;;8.38;;
74042;SDS011;62384;53.600;10.040;2022-10-18T02:42:09;18.48;;;7.63;;
74042;SDS011;62384;53.600;10.040;2022-10-18T02:44:36;22.98;;;8.25;;
74042;SDS011;62384;53.600;10.040;2022-10-18T02:47:03;22.10;;;8.18;;
74042;SDS011;62384;53.600;10.040;2022-10-18T02:49:29;18.13;;;8.05;;
74042;SDS011;62384;53.600;10.040;2022-10-18T02:51:55;20.05;;;9.55;;
74042;SDS011;62384;53.600;10.040;2022-10-18T02:54:27;20.33;;;8.40;;
74042;SDS011;62384;53.600;10.040;2022-10-18T02:56:52;24.90;;;8.68;;
74042;SDS011;62384;53.600;10.040;2022-10-18T02:59:18;22.42;;;8.77;;
74042;SDS011;62384;53.600;10.040;2022-10-18T03:01:43;24.63;;;8.90;;
74042;SDS011;62384;53.600;10.040;2022-10-18T03:04:10;22.75;;;9.20;;
74042;SDS011;62384;53.600;10.040;2022-10-18T03:06:35;19.02;;;8.65;;
74042;SDS011;62384;53.600;10.040;2022-10-18T03:09:04;21.40;;;9.13;;
74042;SDS011;62384;53.600;10.040;2022-10-18T03:11:30;29.65;;;10.35;;
74042;SDS011;62384;53.600;10.040;2022-10-18T03:14:00;27.85;;;10.10;;
74042;SDS011;62384;53.600;10.040;2022-10-18T03:16:25;25.85;;;9.35;;
74042;SDS011;62384;53.600;10.040;2022-10-18T03:18:51;21.85;;;8.70;;
74042;SDS011;62384;53.600;10.040;2022-10-18T03:21:16;22.63;;;9.30;;
74042;SDS011;62384;53.600;10.040;2022-10-18T03:23:42;28.98;;;9.93;;
74042;SDS011;62384;53.600;10.040;2022-10-18T03:26:07;27.48;;;9.95;;
74042;SDS011;62384;53.600;10.040;2022-10-18T03:28:33;20.80;;;9.45;;
74042;SDS011;62384;53.600;10.040;2022-10-18T03:31:02;24.15;;;10.02;;
74042;SDS011;62384;53.600;10.040;2022-10-18T03:33:28;23.70;;;10.20;;
74042;SDS011;62384;53.600;10.040;2022-10-18T03:35:54;22.27;;;9.45;;
74042;SDS011;62384;53.600;10.040;2022-10-18T03:38:19;25.35;;;10.18;;
74042;SDS011;62384;53.600;10.040;2022-10-18T03:40:45;31.88;;;10.98;;
74042;SDS011;62384;53.600;10.040;2022-10-18T03:43:10;25.88;;;9.88;;
74042;SDS011;62384;53.600;10.040;2022-10-18T03:45:35;24.80;;;11.13;;
74042;SDS011;62384;53.600;10.040;2022-10-18T03:48:00;24.30;;;10.30;;
74042;SDS011;62384;53.600;10.040;2022-10-18T03:50:26;24.20;;;10.52;;
74042;SDS011;62384;53.600;10.040;2022-10-18T03:52:51;23.35;;;9.35;;
74042;SDS011;62384;53.600;10.040;2022-10-18T03:55:18;25.65;;;9.93;;
74042;SDS011;62384;53.600;10.040;2022-10-18T03:57:43;22.35;;;10.02;;
74042;SDS011;62384;53.600;10.040;2022-10-18T04:00:09;23.05;;;9.65;;
74042;SDS011;62384;53.600;10.040;2022-10-18T04:02:34;22.13;;;9.32;;
74042;SDS011;62384;53.600;10.040;2022-10-18T04:05:00;22.60;;;9.23;;
74042;SDS011;62384;53.600;10.040;2022-10-18T04:07:28;25.52;;;10.52;;
74042;SDS011;62384;53.600;10.040;2022-10-18T04:09:53;25.23;;;11.18;;
74042;SDS011;62384;53.600;10.040;2022-10-18T04:12:19;20.92;;;9.73;;
74042;SDS011;62384;53.600;10.040;2022-10-18T04:14:44;27.05;;;10.25;;
74042;SDS011;62384;53.600;10.040;2022-10-18T04:17:09;26.65;;;9.55;;
74042;SDS011;62384;53.600;10.040;2022-10-18T04:19:35;25.25;;;10.00;;
74042;SDS011;62384;53.600;10.040;2022-10-18T04:22:07;26.90;;;9.52;;
74042;SDS011;62384;53.600;10.040;2022-10-18T04:24:34;24.90;;;10.02;;
74042;SDS011;62384;53.600;10.040;2022-10-18T04:27:00;25.25;;;9.82;;
74042;SDS011;62384;53.600;10.040;2022-10-18T04:29:25;28.00;;;10.80;;
74042;SDS011;62384;53.600;10.040;2022-10-18T04:31:50;27.00;;;9.55;;
74042;SDS011;62384;53.600;10.040;2022-10-18T04:34:19;25.35;;;9.70;;
74042;SDS011;62384;53.600;10.040;2022-10-18T04:36:44;23.77;;;10.18;;
74042;SDS011;62384;53.600;10.040;2022-10-18T04:39:11;24.95;;;10.00;;
74042;SDS011;62384;53.600;10.040;2022-10-18T04:41:36;30.20;;;11.05;;
74042;SDS011;62384;53.600;10.040;2022-10-18T04:44:01;29.98;;;9.52;;
74042;SDS011;62384;53.600;10.040;2022-10-18T04:46:27;29.02;;;9.93;;
74042;SDS011;62384;53.600;10.040;2022-10-18T04:48:52;26.88;;;10.40;;
74042;SDS011;62384;53.600;10.040;2022-10-18T04:51:17;27.45;;;9.52;;
74042;SDS011;62384;53.600;10.040;2022-10-18T04:53:43;24.52;;;9.55;;
74042;SDS011;62384;53.600;10.040;2022-10-18T04:56:08;34.08;;;11.60;;
74042;SDS011;62384;53.600;10.040;2022-10-18T04:58:33;27.42;;;9.73;;
74042;SDS011;62384;53.600;10.040;2022-10-18T05:01:03;26.05;;;10.63;;
74042;SDS011;62384;53.600;10.040;2022-10-18T05:03:30;25.75;;;10.02;;
74042;SDS011;62384;53.600;10.040;2022-10-18T05:05:55;24.13;;;10.93;;
74042;SDS011;62384;53.600;10.040;2022-10-18T05:08:21;27.63;;;10.98;;
74042;SDS011;62384;53.600;10.040;2022-10-18T05:10:46;27.20;;;10.02;;
74042;SDS011;62384;53.600;10.040;2022-10-18T05:13:11;28.05;;;10.48;;
74042;SDS011;62384;53.600;10.040;2022-10-18T05:15:36;27.33;;;9.65;;
74042;SDS011;62384;53.600;10.040;2022-10-18T05:18:02;38.45;;;12.18;;
74042;SDS011;62384;53.600;10.040;2022-10-18T05:20:27;30.25;;;10.27;;
74042;SDS011;62384;53.600;10.040;2022-10-18T05:22:53;24.92;;;10.15;;
74042;SDS011;62384;53.600;10.040;2022-10-18T05:25:18;36.00;;;12.15;;
74042;SDS011;62384;53.600;10.040;2022-10-18T05:27:43;32.70;;;11.82;;
74042;SDS011;62384;53.600;10.040;2022-10-18T05:30:09;34.33;;;11.80;;
74042;SDS011;62384;53.600;10.040;2022-10-18T05:32:34;39.85;;;11.70;;
74042;SDS011;62384;53.600;10.040;2022-10-18T05:34:59;42.67;;;13.02;;
74042;SDS011;62384;53.600;10.040;2022-10-18T05:37:25;42.88;;;12.70;;
74042;SDS011;62384;53.600;10.040;2022-10-18T05:39:50;36.30;;;13.25;;
74042;SDS011;62384;53.600;10.040;2022-10-18T05:42:21;35.17;;;11.48;;
74042;SDS011;62384;53.600;10.040;2022-10-18T05:44:47;31.92;;;12.77;;
74042;SDS011;62384;53.600;10.040;2022-10-18T05:47:12;30.95;;;10.98;;
74042;SDS011;62384;53.600;10.040;2022-10-18T05:49:41;32.22;;;12.50;;
74042;SDS011;62384;53.600;10.040;2022-10-18T05:52:06;33.50;;;11.75;;
74042;SDS011;62384;53.600;10.040;2022-10-18T05:54:34;34.25;;;12.57;;
74042;SDS011;62384;53.600;10.040;2022-10-18T05:57:01;29.92;;;12.05;;
74042;SDS011;62384;53.600;10.040;2022-10-18T05:59:26;36.72;;;12.35;;
74042;SDS011;62384;53.600;10.040;2022-10-18T06:01:51;29.45;;;10.50;;
74042;SDS011;62384;53.600;10.040;2022-10-18T06:04:17;34.75;;;11.20;;
74042;SDS011;62384;53.600;10.040;2022-10-18T06:06:42;37.53;;;12.57;;
74042;SDS011;62384;53.600;10.040;2022-10-18T06:09:08;30.63;;;10.82;;
74042;SDS011;62384;53.600;10.040;2022-10-18T06:11:41;34.70;;;11.52;;
74042;SDS011;62384;53.600;10.040;2022-10-18T06:14:08;28.70;;;12.18;;
74042;SDS011;62384;53.600;10.040;2022-10-18T06:16:34;35.63;;;11.02;;
74042;SDS011;62384;53.600;10.040;2022-10-18T06:19:01;26.77;;;10.05;;
74042;SDS011;62384;53.600;10.040;2022-10-18T06:21:27;26.85;;;11.20;;
74042;SDS011;62384;53.600;10.040;2022-10-18T06:23:56;24.15;;;9.85;;
74042;SDS011;62384;53.600;10.040;2022-10-18T06:26:23;27.63;;;9.70;;
74042;SDS011;62384;53.600;10.040;2022-10-18T06:28:48;28.33;;;10.27;;
74042;SDS011;62384;53.600;10.040;2022-10-18T06:31:14;29.52;;;10.45;;
74042;SDS011;62384;53.600;10.040;2022-10-18T06:33:40;36.03;;;10.00;;
74042;SDS011;62384;53.600;10.040;2022-10-18T06:36:07;26.50;;;8.93;;
74042;SDS011;62384;53.600;10.040;2022-10-18T06:38:37;31.17;;;9.97;;
74042;SDS011;62384;53.600;10.040;2022-10-18T06:41:03;30.15;;;9.85;;
74042;SDS011;62384;53.600;10.040;2022-10-18T06:43:30;30.73;;;10.63;;
74042;SDS011;62384;53.600;10.040;2022-10-18T06:46:02;27.08;;;8.85;;
74042;SDS011;62384;53.600;10.040;2022-10-18T06:48:31;24.27;;;10.07;;
74042;SDS011;62384;53.600;10.040;2022-10-18T06:50:58;25.75;;;9.50;;
74042;SDS011;62384;53.600;10.040;2022-10-18T06:53:26;25.27;;;9.63;;
74042;SDS011;62384;53.600;10.040;2022-10-18T06:56:00;26.00;;;9.80;;
74042;SDS011;62384;53.600;10.040;2022-10-18T06:58:31;30.10;;;10.63;;
74042;SDS011;62384;53.600;10.040;2022-10-18T07:01:18;30.27;;;10.00;;
74042;SDS011;62384;53.600;10.040;2022-10-18T07:04:42;32.55;;;9.82;;
74042;SDS011;62384;53.600;10.040;2022-10-18T07:07:09;27.30;;;10.90;;
74042;SDS011;62384;53.600;10.040;2022-10-18T07:09:34;34.90;;;12.05;;
74042;SDS011;62384;53.600;10.040;2022-10-18T07:11:59;35.25;;;11.70;;
74042;SDS011;62384;53.600;10.040;2022-10-18T07:14:25;24.40;;;10.15;;
74042;SDS011;62384;53.600;10.040;2022-10-18T07:16:50;30.27;;;10.40;;
74042;SDS011;62384;53.600;10.040;2022-10-18T07:19:15;33.13;;;11.68;;
74042;SDS011;62384;53.600;10.040;2022-10-18T07:21:41;32.10;;;10.57;;
74042;SDS011;62384;53.600;10.040;2022-10-18T07:24:06;28.90;;;11.38;;
74042;SDS011;62384;53.600;10.040;2022-10-18T07:26:32;30.67;;;11.10;;
74042;SDS011;62384;53.600;10.040;2022-10-18T07:29:07;29.38;;;10.98;;
74042;SDS011;62384;53.600;10.040;2022-10-18T07:31:34;30.05;;;10.55;;
74042;SDS011;62384;53.600;10.040;2022-10-18T07:34:02;32.03;;;11.02;;
74042;SDS011;62384;53.600;10.040;2022-10-18T07:36:28;26.45;;;9.23;;
74042;SDS011;62384;53.600;10.040;2022-10-18T07:38:54;24.65;;;8.90;;
74042;SDS011;62384;53.600;10.040;2022-10-18T07:41:19;26.20;;;9.15;;
74042;SDS011;62384;53.600;10.040;2022-10-18T07:43:46;23.17;;;8.75;;
74042;SDS011;62384;53.600;10.040;2022-10-18T07:46:14;26.33;;;8.98;;
74042;SDS011;62384;53.600;10.040;2022-10-18T07:48:40;24.52;;;9.57;;
74042;SDS011;62384;53.600;10.040;2022-10-18T07:51:07;25.83;;;9.55;;
74042;SDS011;62384;53.600;10.040;2022-10-18T07:53:32;31.02;;;10.43;;
74042;SDS011;62384;53.600;10.040;2022-10-18T07:56:02;25.52;;;8.73;;
74042;SDS011;62384;53.600;10.040;2022-10-18T07:58:31;26.42;;;10.82;;
74042;SDS011;62384;53.600;10.040;2022-10-18T08:01:00;30.25;;;9.77;;
74042;SDS011;62384;53.600;10.040;2022-10-18T08:03:30;29.85;;;9.57;;
74042;SDS011;62384;53.600;10.040;2022-10-18T08:05:55;31.83;;;10.82;;
74042;SDS011;62384;53.600;10.040;2022-10-18T08:08:21;28.10;;;9.02;;
74042;SDS011;62384;53.600;10.040;2022-10-18T08:10:47;25.55;;;10.02;;
74042;SDS011;62384;53.600;10.040;2022-10-18T08:13:16;28.65;;;9.20;;
74042;SDS011;62384;53.600;10.040;2022-10-18T08:15:43;22.88;;;9.73;;
74042;SDS011;62384;53.600;10.040;2022-10-18T08:18:09;24.70;;;10.00;;
74042;SDS011;62384;53.600;10.040;2022-10-18T08:20:34;27.73;;;9.85;;
74042;SDS011;62384;53.600;10.040;2022-10-18T08:23:01;23.58;;;8.35;;
74042;SDS011;62384;53.600;10.040;2022-10-18T08:25:27;27.55;;;7.22;;
74042;SDS011;62384;53.600;10.040;2022-10-18T08:27:53;27.05;;;9.20;;
74042;SDS011;62384;53.600;10.040;2022-10-18T08:30:19;27.42;;;9.50;;
74042;SDS011;62384;53.600;10.040;2022-10-18T08:32:44;26.08;;;8.50;;
74042;SDS011;62384;53.600;10.040;2022-10-18T08:35:09;20.73;;;7.60;;
74042;SDS011;62384;53.600;10.040;2022-10-18T08:37:34;22.70;;;8.40;;
74042;SDS011;62384;53.600;10.040;2022-10-18T08:40:00;22.15;;;7.85;;
74042;SDS011;62384;53.600;10.040;2022-10-18T08:42:35;18.75;;;7.68;;
74042;SDS011;62384;53.600;10.040;2022-10-18T08:45:12;21.10;;;7.47;;
74042;SDS011;62384;53.600;10.040;2022-10-18T08:47:39;16.70;;;6.28;;
74042;SDS011;62384;53.600;10.040;2022-10-18T08:50:12;23.30;;;6.70;;
74042;SDS011;62384;53.600;10.040;2022-10-18T08:55:25;20.70;;;7.28;;
74042;SDS011;62384;53.600;10.040;2022-10-18T08:57:51;22.58;;;7.20;;
74042;SDS011;62384;53.600;10.040;2022-10-18T09:00:20;12.43;;;6.55;;
74042;SDS011;62384;53.600;10.040;2022-10-18T09:03:12;19.48;;;6.40;;
74042;SDS011;62384;53.600;10.040;2022-10-18T09:05:54;18.77;;;5.90;;
74042;SDS011;62384;53.600;10.040;2022-10-18T09:08:35;18.65;;;6.43;;
74042;SDS011;62384;53.600;10.040;2022-10-18T09:11:31;20.67;;;7.28;;
74042;SDS011;62384;53.600;10.040;2022-10-18T09:25:46;14.52;;;5.00;;
74042;SDS011;62384;53.600;10.040;2022-10-18T09:30:49;14.40;;;4.53;;
74042;SDS011;62384;53.600;10.040;2022-10-18T09:36:19;9.35;;;4.47;;
74042;SDS011;62384;53.600;10.040;2022-10-18T09:38:49;12.18;;;4.53;;
74042;SDS011;62384;53.600;10.040;2022-10-18T09:44:16;10.25;;;4.00;;
74042;SDS011;62384;53.600;10.040;2022-10-18T09:46:47;10.75;;;4.70;;
74042;SDS011;62384;53.600;10.040;2022-10-18T09:49:17;9.70;;;4.13;;
74042;SDS011;62384;53.600;10.040;2022-10-18T09:51:46;8.27;;;3.80;;
74042;SDS011;62384;53.600;10.040;2022-10-18T09:57:03;9.63;;;3.70;;
74042;SDS011;62384;53.600;10.040;2022-10-18T09:59:39;7.38;;;3.25;;
74042;SDS011;62384;53.600;10.040;2022-10-18T10:02:08;9.23;;;3.55;;
74042;SDS011;62384;53.600;10.040;2022-10-18T10:04:37;7.30;;;3.40;;
74042;SDS011;62384;53.600;10.040;2022-10-18T10:07:03;14.02;;;3.80;;
74042;SDS011;62384;53.600;10.040;2022-10-18T10:09:38;8.55;;;3.65;;
74042;SDS011;62384;53.600;10.040;2022-10-18T10:12:29;5.50;;;3.22;;
74042;SDS011;62384;53.600;10.040;2022-10-18T10:15:06;10.57;;;3.67;;
74042;SDS011;62384;53.600;10.040;2022-10-18T10:17:34;9.18;;;4.72;;
74042;SDS011;62384;53.600;10.040;2022-10-18T10:20:04;9.68;;;4.07;;
74042;SDS011;62384;53.600;10.040;2022-10-18T10:22:43;11.52;;;4.43;;
74042;SDS011;62384;53.600;10.040;2022-10-18T10:28:11;16.48;;;4.75;;
74042;SDS011;62384;53.600;10.040;2022-10-18T10:30:38;9.60;;;4.68;;
74042;SDS011;62384;53.600;10.040;2022-10-18T10:33:04;8.55;;;4.20;;
74042;SDS011;62384;53.600;10.040;2022-10-18T10:38:00;9.93;;;4.15;;
74042;SDS011;62384;53.600;10.040;2022-10-18T10:40:26;9.32;;;3.83;;
74042;SDS011;62384;53.600;10.040;2022-10-18T10:46:01;10.55;;;3.90;;
74042;SDS011;62384;53.600;10.040;2022-10-18T10:48:31;10.63;;;3.60;;
74042;SDS011;62384;53.600;10.040;2022-10-18T10:50:59;16.85;;;3.95;;
74042;SDS011;62384;53.600;10.040;2022-10-18T10:53:36;8.98;;;3.92;;
74042;SDS011;62384;53.600;10.040;2022-10-18T10:56:05;11.30;;;3.50;;
74042;SDS011;62384;53.600;10.040;2022-10-18T10:58:39;13.75;;;4.65;;
74042;SDS011;62384;53.600;10.040;2022-10-18T11:03:56;11.70;;;5.10;;
74042;SDS011;62384;53.600;10.040;2022-10-18T11:06:36;15.75;;;4.25;;
74042;SDS011;62384;53.600;10.040;2022-10-18T11:15:34;12.30;;;4.55;;
74042;SDS011;62384;53.600;10.040;2022-10-18T11:21:00;12.70;;;3.88;;
74042;SDS011;62384;53.600;10.040;2022-10-18T11:23:29;8.38;;;3.10;;
74042;SDS011;62384;53.600;10.040;2022-10-18T11:26:06;9.75;;;3.80;;
74042;SDS011;62384;53.600;10.040;2022-10-18T11:40:48;8.85;;;3.42;;
74042;SDS011;62384;53.600;10.040;2022-10-18T11:48:59;11.50;;;3.60;;
74042;SDS011;62384;53.600;10.040;2022-10-18T11:51:44;10.70;;;3.92;;
74042;SDS011;62384;53.600;10.040;2022-10-18T11:57:36;6.82;;;3.10;;
74042;SDS011;62384;53.600;10.040;2022-10-18T12:06:09;10.70;;;3.10;;
74042;SDS011;62384;53.600;10.040;2022-10-18T12:08:40;7.82;;;2.30;;
74042;SDS011;62384;53.600;10.040;2022-10-18T12:11:14;8.88;;;2.70;;
74042;SDS011;62384;53.600;10.040;2022-10-18T12:25:34;12.85;;;2.10;;
74042;SDS011;62384;53.600;10.040;2022-10-18T12:28:14;13.60;;;2.88;;
74042;SDS011;62384;53.600;10.040;2022-10-18T12:31:02;9.18;;;2.65;;
74042;SDS011;62384;53.600;10.040;2022-10-18T12:33:41;8.20;;;2.28;;
74042;SDS011;62384;53.600;10.040;2022-10-18T12:36:46;7.68;;;1.70;;
74042;SDS011;62384;53.600;10.040;2022-10-18T12:39:46;6.10;;;1.88;;
74042;SDS011;62384;53.600;10.040;2022-10-18T12:42:16;6.43;;;1.33;;
74042;SDS011;62384;53.600;10.040;2022-10-18T12:44:44;5.28;;;1.23;;
74042;SDS011;62384;53.600;10.040;2022-10-18T12:47:18;5.95;;;1.30;;
74042;SDS011;62384;53.600;10.040;2022-10-18T12:50:06;9.40;;;1.70;;
74042;SDS011;62384;53.600;10.040;2022-10-18T12:53:00;8.73;;;0.98;;
74042;SDS011;62384;53.600;10.040;2022-10-18T12:55:29;6.53;;;1.25;;
74042;SDS011;62384;53.600;10.040;2022-10-18T13:01:05;9.75;;;1.38;;
74042;SDS011;62384;53.600;10.040;2022-10-18T13:13:44;11.43;;;1.25;;
74042;SDS011;62384;53.600;10.040;2022-10-18T13:18:51;11.55;;;1.67;;
74042;SDS011;62384;53.600;10.040;2022-10-18T13:24:11;8.10;;;0.93;;
74042;SDS011;62384;53.600;10.040;2022-10-18T13:26:55;6.93;;;0.90;;
74042;SDS011;62384;53.600;10.040;2022-10-18T13:41:04;5.68;;;1.02;;
74042;SDS011;62384;53.600;10.040;2022-10-18T13:46:19;10.38;;;1.00;;
74042;SDS011;62384;53.600;10.040;2022-10-18T13:48:49;10.80;;;1.35;;
74042;SDS011;62384;53.600;10.040;2022-10-18T13:56:37;5.07;;;1.10;;
74042;SDS011;62384;53.600;10.040;2022-10-18T13:59:40;7.30;;;0.75;;
74042;SDS011;62384;53.600;10.040;2022-10-18T14:07:29;6.40;;;1.10;;
74042;SDS011;62384;53.600;10.040;2022-10-18T14:09:56;7.95;;;1.00;;
74042;SDS011;62384;53.600;10.040;2022-10-18T14:12:32;8.27;;;1.95;;
74042;SDS011;62384;53.600;10.040;2022-10-18T14:18:04;3.97;;;0.70;;
74042;SDS011;62384;53.600;10.040;2022-10-18T14:25:36;6.22;;;0.80;;
74042;SDS011;62384;53.600;10.040;2022-10-18T14:28:08;8.85;;;1.00;;
74042;SDS011;62384;53.600;10.040;2022-10-18T14:33:34;5.97;;;0.82;;
74042;SDS011;62384;53.600;10.040;2022-10-18T14:36:13;6.93;;;0.98;;
74042;SDS011;62384;53.600;10.040;2022-10-18T14:38:59;9.82;;;1.00;;
74042;SDS011;62384;53.600;10.040;2022-10-18T14:41:31;5.18;;;0.77;;
74042;SDS011;62384;53.600;10.040;2022-10-18T14:46:39;12.82;;;1.10;;
74042;SDS011;62384;53.600;10.040;2022-10-18T14:50:03;4.60;;;1.10;;
74042;SDS011;62384;53.600;10.040;2022-10-18T14:52:56;3.22;;;0.82;;
74042;SDS011;62384;53.600;10.040;2022-10-18T14:55:22;11.05;;;1.42;;
74042;SDS011;62384;53.600;10.040;2022-10-18T14:57:49;4.82;;;1.00;;
74042;SDS011;62384;53.600;10.040;2022-10-18T15:00:34;3.55;;;0.55;;
74042;SDS011;62384;53.600;10.040;2022-10-18T15:03:26;7.03;;;1.05;;
74042;SDS011;62384;53.600;10.040;2022-10-18T15:08:33;5.10;;;0.80;;
74042;SDS011;62384;53.600;10.040;2022-10-18T15:11:18;9.32;;;1.25;;
74042;SDS011;62384;53.600;10.040;2022-10-18T15:13:47;8.25;;;0.88;;
74042;SDS011;62384;53.600;10.040;2022-10-18T15:16:15;4.80;;;1.10;;
74042;SDS011;62384;53.600;10.040;2022-10-18T15:18:42;5.57;;;1.10;;
74042;SDS011;62384;53.600;10.040;2022-10-18T15:23:34;4.70;;;0.80;;
74042;SDS011;62384;53.600;10.040;2022-10-18T15:26:06;6.85;;;0.65;;
74042;SDS011;62384;53.600;10.040;2022-10-18T15:28:34;5.88;;;1.02;;
74042;SDS011;62384;53.600;10.040;2022-10-18T15:31:03;3.55;;;0.93;;
74042;SDS011;62384;53.600;10.040;2022-10-18T15:33:29;3.67;;;0.73;;
74042;SDS011;62384;53.600;10.040;2022-10-18T15:36:11;4.82;;;0.82;;
74042;SDS011;62384;53.600;10.040;2022-10-18T15:39:06;4.20;;;0.70;;
74042;SDS011;62384;53.600;10.040;2022-10-18T15:41:39;3.55;;;0.90;;
74042;SDS011;62384;53.600;10.040;2022-10-18T15:44:23;5.90;;;1.00;;
74042;SDS011;62384;53.600;10.040;2022-10-18T15:46:52;10.90;;;1.52;;
74042;SDS011;62384;53.600;10.040;2022-10-18T15:54:52;6.03;;;2.15;;
74042;SDS011;62384;53.600;10.040;2022-10-18T15:57:19;3.45;;;0.80;;
74042;SDS011;62384;53.600;10.040;2022-10-18T15:59:48;6.70;;;2.67;;
74042;SDS011;62384;53.600;10.040;2022-10-18T16:02:27;5.45;;;1.13;;
74042;SDS011;62384;53.600;10.040;2022-10-18T16:04:53;9.30;;;0.80;;
74042;SDS011;62384;53.600;10.040;2022-10-18T16:07:21;7.97;;;1.05;;
74042;SDS011;62384;53.600;10.040;2022-10-18T16:09:52;7.50;;;1.00;;
74042;SDS011;62384;53.600;10.040;2022-10-18T16:12:18;7.15;;;1.15;;
74042;SDS011;62384;53.600;10.040;2022-10-18T16:14:43;5.15;;;1.23;;
74042;SDS011;62384;53.600;10.040;2022-10-18T16:17:09;5.07;;;0.90;;
74042;SDS011;62384;53.600;10.040;2022-10-18T16:22:08;3.60;;;1.25;;
74042;SDS011;62384;53.600;10.040;2022-10-18T16:24:38;8.02;;;0.93;;
74042;SDS011;62384;53.600;10.040;2022-10-18T16:27:04;3.60;;;0.60;;
74042;SDS011;62384;53.600;10.040;2022-10-18T16:29:29;8.23;;;1.05;;
74042;SDS011;62384;53.600;10.040;2022-10-18T16:31:56;4.35;;;0.88;;
74042;SDS011;62384;53.600;10.040;2022-10-18T16:34:22;8.20;;;1.23;;
74042;SDS011;62384;53.600;10.040;2022-10-18T16:36:50;6.68;;;1.10;;
74042;SDS011;62384;53.600;10.040;2022-10-18T16:39:17;2.00;;;0.55;;
74042;SDS011;62384;53.600;10.040;2022-10-18T16:41:43;6.75;;;1.00;;
74042;SDS011;62384;53.600;10.040;2022-10-18T16:44:09;7.25;;;1.20;;
74042;SDS011;62384;53.600;10.040;2022-10-18T16:46:35;7.80;;;0.90;;
74042;SDS011;62384;53.600;10.040;2022-10-18T16:49:01;8.98;;;0.90;;
74042;SDS011;62384;53.600;10.040;2022-10-18T16:51:27;5.88;;;0.90;;
74042;SDS011;62384;53.600;10.040;2022-10-18T16:53:53;8.48;;;0.95;;
74042;SDS011;62384;53.600;10.040;2022-10-18T16:56:20;5.13;;;0.82;;
74042;SDS011;62384;53.600;10.040;2022-10-18T16:58:47;6.22;;;2.08;;
74042;SDS011;62384;53.600;10.040;2022-10-18T17:01:14;4.05;;;1.17;;
74042;SDS011;62384;53.600;10.040;2022-10-18T17:03:42;8.35;;;1.20;;
74042;SDS011;62384;53.600;10.040;2022-10-18T17:06:17;5.60;;;0.93;;
74042;SDS011;62384;53.600;10.040;2022-10-18T17:08:48;4.35;;;1.27;;
74042;SDS011;62384;53.600;10.040;2022-10-18T17:11:14;6.43;;;0.98;;
74042;SDS011;62384;53.600;10.040;2022-10-18T17:13:41;6.53;;;1.23;;
74042;SDS011;62384;53.600;10.040;2022-10-18T17:16:09;4.85;;;0.95;;
74042;SDS011;62384;53.600;10.040;2022-10-18T17:18:45;10.23;;;1.13;;
74042;SDS011;62384;53.600;10.040;2022-10-18T17:21:11;6.63;;;1.58;;
74042;SDS011;62384;53.600;10.040;2022-10-18T17:23:36;6.10;;;1.00;;
74042;SDS011;62384;53.600;10.040;2022-10-18T17:26:01;4.78;;;1.15;;
74042;SDS011;62384;53.600;10.040;2022-10-18T17:28:27;8.65;;;1.20;;
74042;SDS011;62384;53.600;10.040;2022-10-18T17:30:52;5.38;;;1.00;;
74042;SDS011;62384;53.600;10.040;2022-10-18T17:33:21;7.60;;;1.00;;
74042;SDS011;62384;53.600;10.040;2022-10-18T17:35:47;14.30;;;1.30;;
74042;SDS011;62384;53.600;10.040;2022-10-18T17:38:13;5.82;;;0.98;;
74042;SDS011;62384;53.600;10.040;2022-10-18T17:40:39;6.47;;;1.20;;
74042;SDS011;62384;53.600;10.040;2022-10-18T17:43:05;6.25;;;1.25;;
74042;SDS011;62384;53.600;10.040;2022-10-18T17:45:48;10.02;;;1.90;;
74042;SDS011;62384;53.600;10.040;2022-10-18T17:48:15;6.53;;;1.80;;